createdAt,value
2023-03-12T00:01:47.498Z,34.40
2023-03-12T00:06:51.740Z,34.40
2023-03-12T00:11:54.564Z,34.40
2023-03-12T00:16:57.470Z,34.40
2023-03-12T00:22:01.654Z,34.30
2023-03-12T00:27:04.694Z,34.30
2023-03-12T00:32:08.480Z,34.30
2023-03-12T00:37:12.644Z,34.30
2023-03-12T00:42:15.990Z,34.20
2023-03-12T00:47:18.857Z,34.20
2023-03-12T00:52:23.022Z,34.20
2023-03-12T00:57:26.093Z,34.20
2023-03-12T01:02:28.967Z,34.20
2023-03-12T01:07:33.394Z,34.20
2023-03-12T01:12:37.040Z,34.20
2023-03-12T01:17:39.869Z,34.10
2023-03-12T01:22:44.565Z,34.10
2023-03-12T01:27:47.474Z,34.10
2023-03-12T01:32:50.339Z,34.10
2023-03-12T01:37:56.003Z,34.20
2023-03-12T01:42:59.807Z,34.10
2023-03-12T01:48:02.627Z,34.10
2023-03-12T01:53:06.867Z,34.10
2023-03-12T01:58:11.247Z,34.10
2023-03-12T02:03:14.691Z,34.20
2023-03-12T02:08:19.445Z,34.20
2023-03-12T02:13:22.428Z,34.30
2023-03-12T02:18:25.297Z,34.20
2023-03-12T02:23:34.831Z,34.30
2023-03-12T02:28:44.097Z,34.30
2023-03-12T02:33:47.017Z,34.30
2023-03-12T02:38:51.954Z,34.30
2023-03-12T02:44:02.320Z,34.30
2023-03-12T02:49:05.406Z,34.30
2023-03-12T02:54:09.300Z,34.30
2023-03-12T02:59:14.328Z,34.30
2023-03-12T03:04:17.223Z,34.30
2023-03-12T03:09:22.109Z,34.30
2023-03-12T03:14:26.370Z,34.30
2023-03-12T03:19:29.210Z,34.30
2023-03-12T03:24:32.130Z,34.30
2023-03-12T03:29:36.328Z,34.30
2023-03-12T03:34:39.946Z,34.30
2023-03-12T03:39:42.891Z,34.40
2023-03-12T03:44:47.153Z,34.30
2023-03-12T03:49:50.253Z,34.30
2023-03-12T03:54:54.007Z,34.30
2023-03-12T04:00:03.378Z,34.30
2023-03-12T04:05:07.228Z,34.30
2023-03-12T04:10:11.345Z,34.30
2023-03-12T04:15:15.587Z,34.30
2023-03-12T04:20:18.790Z,34.30
2023-03-12T04:25:21.642Z,34.30
2023-03-12T04:30:26.037Z,34.30
2023-03-12T04:35:28.843Z,34.50
2023-03-12T04:40:31.765Z,34.30
2023-03-12T04:45:35.992Z,34.30
2023-03-12T04:50:40.278Z,34.30
2023-03-12T04:55:43.319Z,34.30
2023-03-12T05:00:49.002Z,34.30
2023-03-12T05:05:51.817Z,34.40
2023-03-12T05:10:54.668Z,34.40
2023-03-12T05:15:58.889Z,34.40
2023-03-12T05:21:03.401Z,34.40
2023-03-12T05:26:06.517Z,34.40
2023-03-12T05:31:12.439Z,34.50
2023-03-12T05:36:15.993Z,34.50
2023-03-12T05:41:21.245Z,34.50
2023-03-12T05:46:27.011Z,34.50
2023-03-12T05:51:29.867Z,34.50
2023-03-12T05:56:32.779Z,34.50
2023-03-12T06:01:37.223Z,34.50
2023-03-12T06:06:40.205Z,34.50
2023-03-12T06:11:43.111Z,34.60
2023-03-12T06:16:47.309Z,34.60
2023-03-12T06:21:50.183Z,34.60
2023-03-12T06:26:53.082Z,34.60
2023-03-12T06:31:57.369Z,34.60
2023-03-12T06:37:00.483Z,34.60
2023-03-12T06:42:03.338Z,34.60
2023-03-12T06:47:07.660Z,34.60
2023-03-12T06:52:10.550Z,34.60
2023-03-12T06:57:13.368Z,34.70
2023-03-12T07:02:17.872Z,34.60
2023-03-12T07:07:20.814Z,34.70
2023-03-12T07:12:23.647Z,34.60
2023-03-12T07:17:27.871Z,34.70
2023-03-12T07:22:30.667Z,34.80
2023-03-12T07:27:33.665Z,34.40
2023-03-12T07:32:37.989Z,34.40
2023-03-12T07:37:40.833Z,34.10
2023-03-12T07:42:43.621Z,33.70
2023-03-12T07:47:48.190Z,33.20
2023-03-12T07:52:51.552Z,32.70
2023-03-12T07:57:56.620Z,32.40
2023-03-12T08:03:01.134Z,32.00
2023-03-12T08:08:04.195Z,31.80
2023-03-12T08:13:07.098Z,31.60
2023-03-12T08:18:11.301Z,31.50
2023-03-12T08:23:14.094Z,31.70
2023-03-12T08:28:17.742Z,31.40
2023-03-12T08:33:22.705Z,31.40
2023-03-12T08:38:25.566Z,31.40
2023-03-12T08:43:29.592Z,31.60
2023-03-12T08:48:34.542Z,31.60
2023-03-12T08:53:38.000Z,31.70
2023-03-12T08:58:41.004Z,31.90
2023-03-12T09:03:46.313Z,31.90
2023-03-12T09:08:49.289Z,32.30
2023-03-12T09:14:24.612Z,31.80
2023-03-12T09:19:16.973Z,32.40
2023-03-12T09:24:20.099Z,32.70
2023-03-12T09:29:23.478Z,32.80
2023-03-12T09:34:27.745Z,33.10
2023-03-12T09:39:30.542Z,33.00
2023-03-12T09:44:37.557Z,33.00
2023-03-12T09:49:46.838Z,33.10
2023-03-12T09:54:57.833Z,33.30
2023-03-12T10:00:01.158Z,33.50
2023-03-12T10:05:08.056Z,33.50
2023-03-12T10:10:22.726Z,33.60
2023-03-12T10:15:37.875Z,33.70
2023-03-12T10:21:00.303Z,33.90
2023-03-12T10:26:08.466Z,34.10
2023-03-12T10:31:18.767Z,34.40
2023-03-12T10:36:30.444Z,34.40
2023-03-12T10:41:35.000Z,34.10
2023-03-12T10:46:52.320Z,33.60
2023-03-12T10:51:59.021Z,33.00
2023-03-12T10:57:02.255Z,32.70
2023-03-12T11:02:35.106Z,32.20
2023-03-12T11:07:45.246Z,32.30
2023-03-12T11:12:57.893Z,32.10
2023-03-12T11:18:21.300Z,32.10
2023-03-12T11:23:29.063Z,32.30
2023-03-12T11:28:38.501Z,32.40
2023-03-12T11:33:41.368Z,32.30
2023-03-12T11:38:53.436Z,32.40
2023-03-12T11:44:14.097Z,32.40
2023-03-12T11:49:31.288Z,32.50
2023-03-12T11:55:16.575Z,32.40
2023-03-12T12:00:23.855Z,32.30
2023-03-12T12:05:37.055Z,32.30
2023-03-12T12:10:50.108Z,32.40
2023-03-12T12:16:02.037Z,32.40
2023-03-12T12:21:09.855Z,32.40
2023-03-12T12:26:15.047Z,32.50
2023-03-12T12:31:31.221Z,32.50
2023-03-12T12:36:37.021Z,32.80
2023-03-12T12:41:45.409Z,33.10
2023-03-12T12:46:51.473Z,33.00
2023-03-12T12:51:59.219Z,33.00
2023-03-12T12:57:08.223Z,33.20
2023-03-12T13:02:17.895Z,33.30
2023-03-12T13:07:37.390Z,33.30
2023-03-12T13:12:57.891Z,33.70
2023-03-12T13:18:06.336Z,33.20
2023-03-12T13:23:33.670Z,32.90
2023-03-12T13:29:11.337Z,33.20
2023-03-12T13:34:53.505Z,33.30
2023-03-12T13:39:56.486Z,33.50
2023-03-12T13:45:23.482Z,33.40
2023-03-12T13:50:26.760Z,33.40
2023-03-12T13:55:31.037Z,33.40
2023-03-12T14:00:42.435Z,33.60
2023-03-12T14:05:49.910Z,33.60
2023-03-12T14:11:10.578Z,33.80
2023-03-12T14:16:24.536Z,33.80
2023-03-12T14:21:34.180Z,33.90
2023-03-12T14:26:38.170Z,34.00
2023-03-12T14:31:43.160Z,34.00
2023-03-12T14:36:50.466Z,34.10
2023-03-12T14:41:59.793Z,34.10
2023-03-12T14:47:07.494Z,34.30
2023-03-12T14:52:12.586Z,34.30
2023-03-12T14:57:23.384Z,34.40
2023-03-12T15:02:28.909Z,34.30
2023-03-12T15:07:34.624Z,34.20
2023-03-12T15:12:39.173Z,34.50
2023-03-12T15:17:43.603Z,34.60
2023-03-12T15:22:46.582Z,34.60
2023-03-12T15:27:49.503Z,34.80
2023-03-12T15:33:11.505Z,34.80
2023-03-12T15:38:19.414Z,34.80
2023-03-12T15:43:24.724Z,35.00
2023-03-12T15:48:31.957Z,35.20
2023-03-12T15:53:35.627Z,35.20
2023-03-12T15:58:40.988Z,35.30
2023-03-12T16:03:46.288Z,35.50
2023-03-12T16:08:51.686Z,35.70
2023-03-12T16:14:03.758Z,35.90
2023-03-12T16:19:13.093Z,36.40
2023-03-12T16:24:16.744Z,36.40
2023-03-12T16:29:20.881Z,36.50
2023-03-12T16:34:25.190Z,36.50
2023-03-12T16:39:30.285Z,36.60
2023-03-12T16:44:35.906Z,36.70
2023-03-12T16:49:40.596Z,37.00
2023-03-12T16:54:43.470Z,36.90
2023-03-12T16:59:46.278Z,37.80
2023-03-12T17:04:51.126Z,37.60
2023-03-12T17:09:54.043Z,37.80
2023-03-12T17:14:57.863Z,37.70
2023-03-12T17:20:02.445Z,37.80
2023-03-12T17:25:06.201Z,37.30
2023-03-12T17:30:10.778Z,37.90
2023-03-12T17:35:15.097Z,37.90
2023-03-12T17:40:18.179Z,37.60
2023-03-12T17:45:21.176Z,37.10
2023-03-12T17:50:25.519Z,36.70
2023-03-12T17:55:28.421Z,37.10
2023-03-12T18:00:31.403Z,37.40
2023-03-12T18:05:39.565Z,36.90
2023-03-12T18:10:42.446Z,36.70
2023-03-12T18:15:52.959Z,36.70
2023-03-12T18:20:57.240Z,36.70
2023-03-12T18:26:00.163Z,36.30
2023-03-12T18:31:03.814Z,36.10
2023-03-12T18:36:09.061Z,36.70
2023-03-12T18:41:13.640Z,36.80
2023-03-12T18:46:17.000Z,37.00
2023-03-12T18:51:21.537Z,37.00
2023-03-12T18:56:24.393Z,37.50
2023-03-12T19:01:27.370Z,37.60
2023-03-12T19:06:47.850Z,37.50
2023-03-12T19:11:52.869Z,37.40
2023-03-12T19:16:55.806Z,37.30
2023-03-12T19:22:00.029Z,38.00
2023-03-12T19:27:02.945Z,37.60
2023-03-12T19:32:06.308Z,37.60
2023-03-12T19:37:11.007Z,37.80
2023-03-12T19:42:13.861Z,37.40
2023-03-12T19:47:18.366Z,37.30
2023-03-12T19:52:22.716Z,37.40
2023-03-12T19:57:25.736Z,37.00
2023-03-12T20:02:28.927Z,37.20
2023-03-12T20:07:33.301Z,36.80
2023-03-12T20:12:36.252Z,37.00
2023-03-12T20:17:39.270Z,37.00
2023-03-12T20:22:43.479Z,36.80
2023-03-12T20:27:47.223Z,36.60
2023-03-12T20:32:50.169Z,37.30
2023-03-12T20:37:54.555Z,37.80
2023-03-12T20:42:57.653Z,37.10
2023-03-12T20:48:00.879Z,37.20
2023-03-12T20:53:05.168Z,37.30
2023-03-12T20:58:08.269Z,37.40
2023-03-12T21:03:13.607Z,37.60
2023-03-12T21:08:17.818Z,37.40
2023-03-12T21:13:22.013Z,37.40
2023-03-12T21:18:24.962Z,37.70
2023-03-12T21:23:29.337Z,38.00
2023-03-12T21:28:32.928Z,37.70
2023-03-12T21:33:35.941Z,37.80
2023-03-12T21:38:42.628Z,37.50
2023-03-12T21:43:46.531Z,37.30
2023-03-12T21:48:49.698Z,38.30
2023-03-12T21:53:55.698Z,37.50
2023-03-12T21:58:59.144Z,37.60
2023-03-12T22:04:03.127Z,37.40
2023-03-12T22:09:07.339Z,37.60
2023-03-12T22:14:10.572Z,37.50
2023-03-12T22:19:13.394Z,37.40
2023-03-12T22:24:17.569Z,37.40
2023-03-12T22:29:20.370Z,37.30
2023-03-12T22:34:23.223Z,37.20
2023-03-12T22:39:27.659Z,37.00
2023-03-12T22:44:30.554Z,37.10
2023-03-12T22:49:33.364Z,36.70
2023-03-12T22:54:37.676Z,37.20
2023-03-12T22:59:40.496Z,36.80
2023-03-12T23:04:43.387Z,36.80
2023-03-12T23:09:48.559Z,36.90
2023-03-12T23:14:51.602Z,37.10
2023-03-12T23:19:54.416Z,37.10
2023-03-12T23:24:58.689Z,37.10
2023-03-12T23:30:01.657Z,37.20
2023-03-12T23:35:04.705Z,37.20
2023-03-12T23:40:11.172Z,37.20
2023-03-12T23:45:14.161Z,37.20
2023-03-12T23:50:17.365Z,37.20
2023-03-12T23:55:21.493Z,37.20
